Blainesville, Ohio
Current Conditions -  °F | °C
As of 11:04 AM on Saturday 22 Nov 2014 (Local Time) from KHLG Reporting Station
Overcast Overcast  
Wind Chill: 25°   Ceiling: 1400
Heat Index: 34°   Visibility: 10mi
Dew Point: 21°   Wind: 13mph
Humidity: 59%   Direction: 200°SSW
Pressure: 30.27"   Gusts: NA
Location:  40.1184°N, 80.8722°W
Report Text: KHLG 221604Z 20011KT 10SM BKN014 OVC019 01/M06 A3027 RMK AO2 RAE00UPB1557E1559 P0000 T00111061
Loading
Personal Weather Stations






























Interactive Weather Map New forecast layout! Learn more

10-Day Weather Forecast

Advertisements
Track Severe Weather on mobile